Time;durP1;ratioP1;P1;durP2;ratioP2;P2;SDS_P1;SDS_P2;PMS_P1;PMS_P2;Temp;Humidity;BMP_temperature;BMP_pressure;BME280_temperature;BME280_humidity;BME280_pressure;Samples;Min_cycle;Max_cycle;Signal;HPM_P1;HPM_P2
2021/03/13 00:01:27;;;;;;;36.55;25.83;;;282.20;1843.20;;;;;;5056113;28;20479;-63
2021/03/13 00:03:52;;;;;;;40.90;26.60;;;282.10;1920.00;;;;;;5052696;28;20398;-59
2021/03/13 00:06:18;;;;;;;43.88;28.48;;;282.10;1945.60;;;;;;5055103;28;20032;-61
2021/03/13 00:08:44;;;;;;;44.70;28.17;;;282.10;2022.40;;;;;;5055296;28;20040;-60
2021/03/13 00:11:11;;;;;;;47.38;33.33;;;282.00;2124.80;;;;;;5054244;28;20037;-63
2021/03/13 00:13:38;;;;;;;45.60;31.77;;;282.00;2150.40;;;;;;5050187;28;20462;-60
2021/03/13 00:16:05;;;;;;;47.30;31.58;;;281.90;2176.00;;;;;;5074906;28;20123;-61
2021/03/13 00:18:32;;;;;;;48.05;32.10;;;281.90;2201.60;;;;;;5076090;28;20028;-60
2021/03/13 00:20:57;;;;;;;50.40;32.92;;;281.90;2201.60;;;;;;5075946;28;20041;-59
2021/03/13 00:23:25;;;;;;;47.08;31.48;;;281.80;2252.80;;;;;;5076361;28;20371;-59
2021/03/13 00:25:51;;;;;;;50.00;33.03;;;281.80;2227.20;;;;;;5075719;28;20546;-59
2021/03/13 00:28:18;;;;;;;46.45;32.15;;;281.60;2227.20;;;;;;5075952;28;20025;-59
2021/03/13 00:30:46;;;;;;;54.88;34.33;;;256.70;2252.80;;;;;;5075876;28;20035;-60
2021/03/13 00:33:14;;;;;;;50.25;35.10;;;256.30;2252.80;;;;;;5075826;28;20021;-62
2021/03/13 00:35:42;;;;;;;52.97;36.80;;;256.30;2252.80;;;;;;5075635;28;20032;-61
2021/03/13 00:38:08;;;;;;;51.58;36.47;;;231.30;2252.80;;;;;;5075890;28;20012;-59
2021/03/13 00:40:36;;;;;;;51.60;36.22;;;231.10;2252.80;;;;;;5075592;28;20090;-63
2021/03/13 00:43:03;;;;;;;52.58;36.65;;;231.00;2252.80;;;;;;5075217;28;20104;-63
2021/03/13 00:45:29;;;;;;;52.65;36.50;;;231.10;2252.80;;;;;;5075639;28;20035;-59
2021/03/13 00:47:57;;;;;;;45.28;33.22;;;231.10;2252.80;;;;;;5061137;28;20111;-61
2021/03/13 00:50:25;;;;;;;45.45;32.78;;;231.10;2252.80;;;;;;5056310;28;20083;-61
2021/03/13 00:52:51;;;;;;;45.30;31.17;;;231.00;2252.80;;;;;;5080273;28;20052;-60
2021/03/13 00:55:17;;;;;;;49.88;34.15;;;231.10;2252.80;;;;;;5084084;28;20078;-60
2021/03/13 00:57:43;;;;;;;49.97;32.40;;;231.10;2252.80;;;;;;5075028;28;20021;-62
2021/03/13 01:00:13;;;;;;;44.85;31.77;;;231.20;2252.80;;;;;;5075851;28;20043;-61
2021/03/13 01:02:38;;;;;;;45.28;30.40;;;230.80;2252.80;;;;;;5095664;28;20107;-59
2021/03/13 01:05:06;;;;;;;42.70;30.13;;;230.50;2252.80;;;;;;5079853;28;20185;-61
2021/03/13 01:07:33;;;;;;;47.33;33.75;;;205.70;2252.80;;;;;;5061119;28;20024;-62
2021/03/13 01:09:59;;;;;;;48.42;32.72;;;230.40;2252.80;;;;;;5087094;28;20135;-60
2021/03/13 01:12:25;;;;;;;42.55;30.55;;;230.40;2252.80;;;;;;5090151;28;20534;-60
2021/03/13 01:14:51;;;;;;;47.13;31.65;;;205.70;2252.80;;;;;;5074322;28;20103;-61
2021/03/13 01:17:17;;;;;;;45.53;31.65;;;230.60;2252.80;;;;;;5090923;28;20028;-60
2021/03/13 01:19:42;;;;;;;46.60;31.92;;;230.50;2252.80;;;;;;5094552;28;20050;-61
2021/03/13 01:22:08;;;;;;;46.60;32.40;;;230.70;2252.80;;;;;;5080404;28;20048;-60
2021/03/13 01:24:40;;;;;;;49.58;33.00;;;230.80;2252.80;;;;;;5074680;28;20467;-60
2021/03/13 01:27:07;;;;;;;48.97;33.92;;;230.70;2252.80;;;;;;5074825;28;20025;-60
2021/03/13 01:29:32;;;;;;;48.47;32.35;;;230.70;2252.80;;;;;;5074710;28;20091;-61
2021/03/13 01:32:03;;;;;;;56.88;36.03;;;230.50;2252.80;;;;;;5074746;28;20025;-60
2021/03/13 01:34:29;;;;;;;48.47;33.50;;;230.40;2252.80;;;;;;5074157;28;20691;-62
2021/03/13 01:36:55;;;;;;;50.90;34.95;;;230.60;2252.80;;;;;;5074892;28;20017;-61
2021/03/13 01:39:20;;;;;;;48.33;34.42;;;230.60;2252.80;;;;;;5074585;28;20024;-60
2021/03/13 01:41:46;;;;;;;49.28;33.78;;;230.50;2252.80;;;;;;5074669;28;20086;-62
2021/03/13 01:44:12;;;;;;;49.78;33.45;;;230.60;2252.80;;;;;;5074084;28;20036;-62
2021/03/13 01:46:37;;;;;;;51.65;36.67;;;230.70;2252.80;;;;;;5074648;28;20108;-61
2021/03/13 01:49:03;;;;;;;52.35;35.92;;;230.50;2252.80;;;;;;5074147;28;20032;-62
2021/03/13 01:51:29;;;;;;;53.00;37.28;;;205.70;2252.80;;;;;;5079013;28;20441;-62
2021/03/13 01:53:55;;;;;;;54.00;37.10;;;205.60;2252.80;;;;;;5075302;28;20032;-63
2021/03/13 01:56:22;;;;;;;49.97;36.95;;;;;;;;;;5090186;28;20492;-59
2021/03/13 01:58:48;;;;;;;53.80;35.83;;;;;;;;;;5074311;28;20576;-61
2021/03/13 02:01:14;;;;;;;50.95;33.38;;;;;;;;;;5087433;28;20397;-62
2021/03/13 02:03:41;;;;;;;52.67;35.38;;;230.50;2252.80;;;;;;5073818;28;20024;-62
2021/03/13 02:06:07;;;;;;;47.63;34.85;;;230.40;2252.80;;;;;;5073314;28;20481;-62
2021/03/13 02:09:03;;;;;;;48.83;34.90;;;230.50;2252.80;;;;;;5081699;28;20052;-61
2021/03/13 02:11:46;;;;;;;51.63;33.63;;;230.80;2252.80;;;;;;5075271;28;20020;-63
2021/03/13 02:14:34;;;;;;;53.55;33.88;;;230.80;2252.80;;;;;;5073208;28;20066;-61
2021/03/13 02:17:05;;;;;;;49.03;33.75;;;230.80;2252.80;;;;;;5072910;28;20483;-61
2021/03/13 02:19:53;;;;;;;48.35;34.60;;;230.80;2252.80;;;;;;5073157;28;20073;-59
2021/03/13 02:22:23;;;;;;;48.30;34.53;;;230.90;2252.80;;;;;;5055068;28;20071;-61
2021/03/13 02:24:57;;;;;;;48.83;34.50;;;230.90;2252.80;;;;;;5073692;28;20039;-62
2021/03/13 02:27:27;;;;;;;49.45;35.10;;;231.00;2252.80;;;;;;5084794;28;20032;-60
2021/03/13 02:29:58;;;;;;;51.25;35.55;;;231.00;2252.80;;;;;;5072487;28;20020;-61
2021/03/13 02:32:41;;;;;;;49.33;35.20;;;231.10;2252.80;;;;;;5072270;28;20032;-63
2021/03/13 02:35:15;;;;;;;51.90;37.22;;;230.80;2252.80;;;;;;5072412;28;20079;-61
2021/03/13 02:37:48;;;;;;;54.95;39.70;;;230.90;2252.80;;;;;;5072738;28;20028;-60
2021/03/13 02:40:18;;;;;;;53.67;37.33;;;230.80;2252.80;;;;;;5072216;28;20032;-60
2021/03/13 02:42:55;;;;;;;50.20;34.90;;;230.90;2252.80;;;;;;5073572;28;20029;-60
2021/03/13 02:45:27;;;;;;;54.75;35.90;;;231.10;2252.80;;;;;;5072845;28;20063;-63
2021/03/13 02:47:54;;;;;;;56.78;38.70;;;231.10;2252.80;;;;;;5073820;28;20027;-62
2021/03/13 02:50:20;;;;;;;48.70;34.92;;;231.00;2252.80;;;;;;5072793;28;20044;-61
2021/03/13 02:52:48;;;;;;;46.90;34.20;;;231.10;2252.80;;;;;;5073301;28;20096;-62
2021/03/13 02:55:15;;;;;;;55.75;37.42;;;231.00;2252.80;;;;;;5072913;28;20116;-62
2021/03/13 02:57:44;;;;;;;48.85;34.75;;;231.10;2252.80;;;;;;5072985;28;20039;-62
2021/03/13 03:00:14;;;;;;;48.20;34.17;;;231.00;2252.80;;;;;;5072668;28;20045;-62
2021/03/13 03:02:41;;;;;;;54.80;37.95;;;230.90;2252.80;;;;;;5072766;28;20032;-59
2021/03/13 03:05:08;;;;;;;51.25;36.83;;;230.90;2252.80;;;;;;5073054;28;20020;-62
2021/03/13 03:07:34;;;;;;;54.92;38.58;;;230.90;2252.80;;;;;;5072703;28;20035;-60
2021/03/13 03:10:01;;;;;;;55.13;37.25;;;230.90;2252.80;;;;;;5068247;28;20025;-60
2021/03/13 03:12:27;;;;;;;59.95;39.53;;;230.90;2252.80;;;;;;5052201;28;20025;-59
2021/03/13 03:14:57;;;;;;;58.13;39.67;;;230.90;2252.80;;;;;;5055774;28;20032;-61
2021/03/13 03:17:25;;;;;;;58.33;39.47;;;230.80;2252.80;;;;;;5052183;28;20025;-61
2021/03/13 03:19:53;;;;;;;60.88;40.13;;;230.80;2252.80;;;;;;5052510;28;20025;-59
2021/03/13 03:22:19;;;;;;;57.08;39.35;;;230.70;2252.80;;;;;;5052764;28;20396;-61
2021/03/13 03:24:45;;;;;;;60.33;41.20;;;230.70;2252.80;;;;;;5052777;28;20036;-62
2021/03/13 03:27:11;;;;;;;67.63;43.97;;;230.70;2252.80;;;;;;5051803;28;20469;-60
2021/03/13 03:29:37;;;;;;;60.20;41.75;;;230.70;2252.80;;;;;;5052459;28;20053;-61
2021/03/13 03:32:03;;;;;;;65.82;43.28;;;230.70;2252.80;;;;;;5052507;28;20034;-60
2021/03/13 03:34:28;;;;;;;63.20;42.83;;;230.50;2252.80;;;;;;5051987;28;20033;-61
2021/03/13 03:36:54;;;;;;;70.38;45.97;;;230.60;2252.80;;;;;;5052919;28;20032;-59
2021/03/13 03:39:20;;;;;;;64.68;44.33;;;230.50;2252.80;;;;;;5052357;28;20024;-60
2021/03/13 03:41:50;;;;;;;68.57;44.15;;;230.50;2252.80;;;;;;5052969;28;20358;-60
2021/03/13 03:44:19;;;;;;;59.97;41.72;;;230.50;2252.80;;;;;;5051983;28;20052;-62
2021/03/13 03:46:47;;;;;;;61.25;41.20;;;230.50;2252.80;;;;;;5051789;28;20021;-61
2021/03/13 03:49:14;;;;;;;64.70;43.08;;;230.40;2252.80;;;;;;5051349;28;20029;-60
2021/03/13 03:51:40;;;;;;;58.65;40.85;;;230.40;2252.80;;;;;;5061438;28;20032;-60
2021/03/13 03:54:11;;;;;;;63.25;41.47;;;205.60;2252.80;;;;;;5071974;28;20068;-59
2021/03/13 03:56:40;;;;;;;56.20;38.70;;;205.40;2252.80;;;;;;5071579;28;20024;-59
2021/03/13 03:59:09;;;;;;;57.17;39.42;;;205.50;2252.80;;;;;;5071534;28;20382;-62
2021/03/13 04:01:36;;;;;;;60.67;38.03;;;205.50;2252.80;;;;;;5071633;28;20501;-62
2021/03/13 04:04:06;;;;;;;58.50;40.10;;;205.40;2252.80;;;;;;5071406;28;20470;-60
2021/03/13 04:06:32;;;;;;;65.68;42.22;;;205.40;2252.80;;;;;;5071726;28;20017;-60
2021/03/13 04:09:02;;;;;;;64.80;42.00;;;205.40;2252.80;;;;;;5071411;28;20169;-59
2021/03/13 04:11:28;;;;;;;65.75;42.63;;;205.40;2252.80;;;;;;5071954;28;20040;-61
2021/03/13 04:13:57;;;;;;;67.30;44.95;;;205.40;2252.80;;;;;;5071468;28;20027;-60
2021/03/13 04:16:23;;;;;;;;;;;205.20;2252.80;;;;;;5071774;28;20482;-59
2021/03/13 04:18:49;;;;;;;63.90;43.30;;;205.20;2252.80;;;;;;5071616;28;19911;-60
2021/03/13 04:21:16;;;;;;;66.70;44.28;;;205.30;2252.80;;;;;;5071328;28;20441;-60
2021/03/13 04:23:45;;;;;;;68.75;42.45;;;205.40;2252.80;;;;;;5071483;28;20166;-61
2021/03/13 04:26:11;;;;;;;72.90;45.20;;;205.40;2252.80;;;;;;5071407;28;20136;-59
2021/03/13 04:28:37;;;;;;;73.07;45.40;;;205.40;2252.80;;;;;;5080108;28;20020;-59
2021/03/13 04:31:05;;;;;;;75.47;47.50;;;205.40;2252.80;;;;;;5076951;28;20035;-60
2021/03/13 04:33:33;;;;;;;81.97;50.05;;;205.30;2252.80;;;;;;5071629;28;20028;-60
2021/03/13 04:35:59;;;;;;;83.72;49.85;;;205.40;2252.80;;;;;;5071299;28;20059;-61
2021/03/13 04:38:25;;;;;;;91.55;50.83;;;205.20;2252.80;;;;;;5072258;28;20056;-61
2021/03/13 04:40:51;;;;;;;88.72;49.20;;;205.30;2252.80;;;;;;5074972;28;20033;-62
2021/03/13 04:43:24;;;;;;;85.63;49.50;;;205.30;2252.80;;;;;;5089057;28;20370;-60
2021/03/13 04:45:50;;;;;;;92.13;51.72;;;205.30;2252.80;;;;;;5074981;28;20029;-61
2021/03/13 04:48:16;;;;;;;90.45;51.00;;;205.30;2252.80;;;;;;5075022;28;20374;-60
2021/03/13 04:50:42;;;;;;;96.03;52.03;;;205.30;2252.80;;;;;;5075068;28;20039;-61
2021/03/13 04:53:08;;;;;;;90.75;49.72;;;205.40;2252.80;;;;;;5074460;28;20045;-60
2021/03/13 04:55:34;;;;;;;91.10;48.45;;;205.40;2252.80;;;;;;5074963;28;20052;-59
2021/03/13 04:58:00;;;;;;;93.05;49.17;;;205.50;2252.80;;;;;;5074683;28;20067;-59
2021/03/13 05:00:26;;;;;;;92.20;50.45;;;205.50;2252.80;;;;;;5074633;28;20020;-60
2021/03/13 05:02:52;;;;;;;101.43;52.88;;;205.50;2252.80;;;;;;5074644;28;20497;-60
2021/03/13 05:05:17;;;;;;;88.15;47.35;;;205.40;2252.80;;;;;;5074642;28;20027;-60
2021/03/13 05:07:43;;;;;;;93.07;48.92;;;205.50;2252.80;;;;;;5074613;28;20660;-61
2021/03/13 05:10:10;;;;;;;92.55;48.22;;;205.50;2252.80;;;;;;5074460;28;20493;-61
2021/03/13 05:12:36;;;;;;;94.43;46.95;;;205.50;2252.80;;;;;;5080027;28;20027;-61
2021/03/13 05:15:08;;;;;;;101.88;48.53;;;205.50;2252.80;;;;;;5082653;28;20394;-59
2021/03/13 05:17:33;;;;;;;99.90;45.67;;;205.50;2252.80;;;;;;5074535;28;20020;-59
2021/03/13 05:19:59;;;;;;;91.80;45.55;;;205.50;2252.80;;;;;;5074168;28;20025;-60
2021/03/13 05:22:26;;;;;;;88.13;46.78;;;205.50;2252.80;;;;;;5074482;28;20502;-60
2021/03/13 05:24:51;;;;;;;92.03;46.28;;;205.40;2252.80;;;;;;5056281;28;20095;-60
2021/03/13 05:27:17;;;;;;;87.90;44.42;;;205.50;2252.80;;;;;;5056227;28;20029;-60
2021/03/13 05:29:43;;;;;;;83.90;45.28;;;205.50;2252.80;;;;;;5074043;28;20020;-60
2021/03/13 05:32:09;;;;;;;80.25;44.10;;;205.60;2252.80;;;;;;5074430;28;20028;-61
2021/03/13 05:34:35;;;;;;;81.93;45.55;;;205.50;2252.80;;;;;;5087975;28;20025;-59
2021/03/13 05:37:01;;;;;;;85.38;43.70;;;205.50;2252.80;;;;;;5074307;28;20019;-59
2021/03/13 05:39:26;;;;;;;79.20;43.42;;;205.30;2252.80;;;;;;5074149;28;20374;-61
2021/03/13 05:41:54;;;;;;;79.35;45.08;;;205.40;2252.80;;;;;;5074270;28;20475;-59
2021/03/13 05:44:20;;;;;;;77.32;44.63;;;205.50;2252.80;;;;;;5074000;28;20029;-60
2021/03/13 05:46:46;;;;;;;76.47;41.92;;;205.50;2252.80;;;;;;5080597;28;20020;-60
2021/03/13 05:49:13;;;;;;;82.18;43.67;;;205.50;2252.80;;;;;;5094667;28;20080;-62
2021/03/13 05:51:43;;;;;;;84.68;46.17;;;205.40;2252.80;;;;;;5093574;28;20141;-60
2021/03/13 05:54:12;;;;;;;85.63;44.63;;;205.20;2252.80;;;;;;5094572;28;20027;-62
2021/03/13 05:56:38;;;;;;;;;;;205.10;2252.80;;;;;;5095047;28;20105;-60
2021/03/13 05:59:05;;;;;;;84.03;44.47;;;205.10;2252.80;;;;;;5094146;28;20373;-59
2021/03/13 06:01:31;;;;;;;85.90;45.70;;;205.10;2252.80;;;;;;5094388;28;20042;-60
2021/03/13 06:03:57;;;;;;;91.63;48.50;;;204.80;2252.80;;;;;;5094239;28;20450;-62
2021/03/13 06:06:25;;;;;;;91.85;49.15;;;205.10;2252.80;;;;;;5094630;28;20038;-60
2021/03/13 06:08:54;;;;;;;90.32;48.08;;;205.10;2252.80;;;;;;5094154;28;20462;-62
2021/03/13 06:11:22;;;;;;;96.05;49.10;;;205.10;2252.80;;;;;;5094079;28;20606;-60
2021/03/13 06:13:49;;;;;;;86.75;48.53;;;205.20;2252.80;;;;;;5094006;28;20024;-62
2021/03/13 06:16:15;;;;;;;83.13;45.95;;;205.10;2252.80;;;;;;5094365;28;20017;-62
2021/03/13 06:18:47;;;;;;;88.57;48.38;;;205.10;2252.80;;;;;;5080051;28;20379;-59
2021/03/13 06:21:33;;;;;;;95.47;47.40;;;205.00;2252.80;;;;;;5073168;28;20195;-60
2021/03/13 06:24:03;;;;;;;97.10;48.22;;;205.20;2252.80;;;;;;5067228;28;20023;-59
2021/03/13 06:26:49;;;;;;;84.57;46.58;;;205.20;2252.80;;;;;;5079297;28;20506;-61
2021/03/13 06:29:15;;;;;;;88.07;44.92;;;205.40;2252.80;;;;;;5072572;28;20029;-59
2021/03/13 06:31:41;;;;;;;76.97;43.50;;;205.20;2252.80;;;;;;5072541;28;20028;-61
2021/03/13 06:34:06;;;;;;;76.38;44.05;;;205.60;2252.80;;;;;;5071843;28;20116;-61
2021/03/13 06:36:32;;;;;;;73.50;43.25;;;230.50;2252.80;;;;;;5076918;28;20098;-61
2021/03/13 06:38:58;;;;;;;82.72;44.92;;;230.60;2252.80;;;;;;5080916;28;20032;-60
2021/03/13 06:41:24;;;;;;;67.78;39.80;;;230.90;2252.80;;;;;;5037183;28;20399;-59
2021/03/13 06:43:51;;;;;;;66.47;39.85;;;231.10;2252.80;;;;;;5071959;28;20449;-61
2021/03/13 06:46:27;;;;;;;66.30;40.78;;;256.10;2252.80;;;;;;5071444;28;20032;-61
2021/03/13 06:48:54;;;;;;;60.25;35.03;;;256.20;2252.80;;;;;;5071965;28;20024;-59
2021/03/13 06:51:23;;;;;;;54.25;34.63;;;256.30;2252.80;;;;;;5071327;28;20052;-59
2021/03/13 06:54:14;;;;;;;52.58;33.05;;;256.30;2252.80;;;;;;5072451;28;20020;-61
2021/03/13 06:56:55;;;;;;;56.50;34.53;;;256.30;2252.80;;;;;;5072713;28;20055;-59
2021/03/13 06:59:46;;;;;;;54.63;34.35;;;256.10;2252.80;;;;;;5072176;28;20458;-59
2021/03/13 07:02:13;;;;;;;64.55;37.85;;;256.10;2252.80;;;;;;5072028;28;20474;-60
2021/03/13 07:04:43;;;;;;;56.58;35.65;;;256.20;2252.80;;;;;;5072477;28;20016;-61
2021/03/13 07:07:25;;;;;;;55.88;35.40;;;256.40;2252.80;;;;;;5072184;28;20022;-59
2021/03/13 07:09:56;;;;;;;55.63;34.13;;;256.40;2252.80;;;;;;5071812;28;20021;-60
2021/03/13 07:12:29;;;;;;;56.55;34.80;;;256.40;2252.80;;;;;;5072369;28;20025;-62
2021/03/13 07:15:16;;;;;;;55.67;35.47;;;256.40;2252.80;;;;;;5072184;28;20474;-59
2021/03/13 07:17:55;;;;;;;53.60;32.05;;;256.50;2252.80;;;;;;4974379;28;20456;-61
2021/03/13 07:20:24;;;;;;;52.33;33.05;;;256.10;2252.80;;;;;;4990564;28;20101;-59
2021/03/13 07:23:03;;;;;;;45.08;27.45;;;256.10;2252.80;;;;;;4990786;28;20049;-59
2021/03/13 07:25:29;;;;;;;52.10;29.50;;;256.40;2252.80;;;;;;4990687;28;20066;-60
2021/03/13 07:27:57;;;;;;;51.40;31.35;;;256.60;2252.80;;;;;;4990961;28;20058;-59
2021/03/13 07:30:24;;;;;;;59.63;32.73;;;256.70;2252.80;;;;;;4990254;28;20118;-62
2021/03/13 07:33:03;;;;;;;56.85;34.78;;;256.90;2252.80;;;;;;5004525;28;20030;-61
2021/03/13 07:35:35;;;;;;;59.47;33.67;;;281.60;2278.40;;;;;;4990255;28;20042;-59
2021/03/13 07:38:05;;;;;;;52.92;29.33;;;281.70;2278.40;;;;;;4991098;28;20026;-59
2021/03/13 07:40:34;;;;;;;52.90;31.67;;;281.80;2278.40;;;;;;4990430;28;20096;-62
2021/03/13 07:43:02;;;;;;;58.97;30.15;;;281.80;2278.40;;;;;;4990599;28;20041;-61
2021/03/13 07:45:28;;;;;;;59.13;32.70;;;281.90;2278.40;;;;;;4991282;28;20038;-60
2021/03/13 07:47:58;;;;;;;59.65;35.35;;;282.00;2278.40;;;;;;4991207;28;20216;-64
2021/03/13 07:50:24;;;;;;;62.20;35.38;;;282.00;2278.40;;;;;;4990546;28;20481;-62
2021/03/13 07:52:50;;;;;;;55.50;32.45;;;281.80;2278.40;;;;;;4993530;28;20061;-59
2021/03/13 07:55:18;;;;;;;59.40;34.13;;;281.70;2278.40;;;;;;5026170;28;20049;-60
2021/03/13 07:57:46;;;;;;;62.17;36.67;;;281.70;2278.40;;;;;;5032039;28;20048;-59
2021/03/13 08:00:13;;;;;;;56.55;32.60;;;281.70;2278.40;;;;;;5033186;28;20032;-62
2021/03/13 08:02:42;;;;;;;52.00;28.55;;;281.70;2278.40;;;;;;5051458;28;20399;-64
2021/03/13 08:05:13;;;;;;;49.83;30.58;;;281.60;2278.40;;;;;;5051978;28;20021;-61
2021/03/13 08:07:56;;;;;;;53.30;31.85;;;281.80;2278.40;;;;;;5052296;28;20044;-64
2021/03/13 08:10:40;;;;;;;51.03;32.15;;;281.90;2278.40;;;;;;5051884;28;20467;-64
2021/03/13 08:13:10;;;;;;;54.80;33.08;;;281.90;2278.40;;;;;;5053220;28;20028;-64
2021/03/13 08:15:39;;;;;;;57.50;32.78;;;281.70;2278.40;;;;;;5069256;28;20056;-60
2021/03/13 08:18:05;;;;;;;52.70;31.27;;;281.90;2278.40;;;;;;5075032;28;20486;-60
2021/03/13 08:20:31;;;;;;;53.38;32.47;;;281.90;2278.40;;;;;;5068257;28;20151;-62
2021/03/13 08:23:12;;;;;;;50.33;31.50;;;281.90;2278.40;;;;;;5061642;28;20028;-60
2021/03/13 08:25:55;;;;;;;50.28;32.03;;;282.00;2278.40;;;;;;5060998;28;20036;-63
2021/03/13 08:28:48;;;;;;;51.10;29.83;;;281.90;2278.40;;;;;;5075804;28;20075;-60
2021/03/13 08:31:29;;;;;;;52.25;31.98;;;281.60;2278.40;;;;;;5075208;28;20437;-60
2021/03/13 08:33:59;;;;;;;51.30;31.13;;;281.60;2278.40;;;;;;5062683;28;20060;-60
2021/03/13 08:36:52;;;;;;;48.67;29.38;;;256.90;2252.80;;;;;;5054985;28;20029;-62
2021/03/13 08:39:19;;;;;;;45.00;29.70;;;256.90;2252.80;;;;;;5069169;28;20211;-63
2021/03/13 08:41:56;;;;;;;51.40;33.08;;;281.60;2278.40;;;;;;5062011;28;20029;-62
2021/03/13 08:44:37;;;;;;;45.72;28.38;;;281.60;2278.40;;;;;;5060279;28;20399;-62
2021/03/13 08:47:12;;;;;;;45.80;28.92;;;281.70;2278.40;;;;;;5055451;28;20024;-61
2021/03/13 08:49:55;;;;;;;40.78;25.42;;;281.90;2278.40;;;;;;5068461;28;20029;-60
2021/03/13 08:52:23;;;;;;;43.47;26.00;;;282.00;2278.40;;;;;;5052048;28;20071;-61
2021/03/13 08:54:51;;;;;;;39.75;27.25;;;282.40;2252.80;;;;;;5076725;28;20036;-64
2021/03/13 08:57:25;;;;;;;39.70;25.77;;;307.30;2252.80;;;;;;5098081;28;20445;-69
2021/03/13 08:59:53;;;;;;;45.63;28.02;;;307.50;2201.60;;;;;;5098263;28;20020;-60
2021/03/13 09:02:32;;;;;;;46.10;28.88;;;307.50;2176.00;;;;;;5083708;28;20092;-61
2021/03/13 09:05:02;;;;;;;44.70;27.95;;;307.60;2201.60;;;;;;5079158;28;20032;-61
2021/03/13 09:07:28;;;;;;;46.40;29.05;;;307.80;2124.80;;;;;;5058221;28;20159;-62
2021/03/13 09:09:57;;;;;;;42.15;26.98;;;308.10;2073.60;;;;;;5074122;28;20103;-60
2021/03/13 09:12:24;;;;;;;47.70;28.17;;;332.80;2073.60;;;;;;5088789;28;20082;-65
2021/03/13 09:14:53;;;;;;;42.65;28.45;;;333.10;2073.60;;;;;;5055628;28;20470;-63
2021/03/13 09:17:25;;;;;;;43.15;28.45;;;333.20;2022.40;;;;;;5075282;28;20356;-61
2021/03/13 09:19:52;;;;;;;39.75;26.45;;;333.30;2022.40;;;;;;5074683;28;20060;-62
2021/03/13 09:22:20;;;;;;;39.10;26.38;;;333.30;1996.80;;;;;;5074573;28;20041;-61
2021/03/13 09:24:59;;;;;;;38.97;25.75;;;333.50;1996.80;;;;;;5073459;28;20031;-62
2021/03/13 09:27:30;;;;;;;35.47;25.00;;;333.30;1971.20;;;;;;5074881;28;20016;-61
2021/03/13 09:29:58;;;;;;;36.33;26.00;;;333.30;1971.20;;;;;;5074851;28;20031;-61
2021/03/13 09:32:25;;;;;;;35.35;24.55;;;333.60;1945.60;;;;;;5074962;28;20021;-60
2021/03/13 09:34:53;;;;;;;34.42;22.58;;;333.60;1920.00;;;;;;5074319;28;20028;-61
2021/03/13 09:37:21;;;;;;;39.10;26.23;;;333.50;1868.80;;;;;;5074729;28;20024;-62
2021/03/13 09:39:49;;;;;;;36.37;23.83;;;333.40;1920.00;;;;;;5055668;28;20364;-61
2021/03/13 09:42:22;;;;;;;33.75;23.17;;;333.50;1920.00;;;;;;5073817;28;20052;-61
2021/03/13 09:44:53;;;;;;;30.23;20.77;;;333.50;1945.60;;;;;;5074140;28;20025;-61
2021/03/13 09:47:33;;;;;;;33.50;21.35;;;333.30;1868.80;;;;;;5072695;28;20392;-60
2021/03/13 09:50:02;;;;;;;32.13;21.63;;;333.40;1920.00;;;;;;5073729;28;20013;-60
2021/03/13 09:52:30;;;;;;;38.15;22.67;;;333.30;1894.40;;;;;;5087281;28;20094;-61
2021/03/13 09:55:08;;;;;;;37.67;23.05;;;333.40;1894.40;;;;;;5081010;28;20025;-59
2021/03/13 09:57:35;;;;;;;33.13;22.83;;;333.70;1894.40;;;;;;5060212;28;20119;-62
2021/03/13 10:00:04;;;;;;;38.28;24.60;;;333.60;1894.40;;;;;;5055671;28;20082;-63
2021/03/13 10:02:30;;;;;;;31.67;23.55;;;333.60;1920.00;;;;;;5072385;28;20032;-61
2021/03/13 10:04:57;;;;;;;30.40;21.40;;;333.60;1894.40;;;;;;5073196;28;20407;-62
2021/03/13 10:07:23;;;;;;;31.15;22.42;;;333.60;1894.40;;;;;;5075507;28;20017;-61
2021/03/13 10:10:00;;;;;;;33.67;23.25;;;333.60;1894.40;;;;;;5074141;28;20027;-63
2021/03/13 10:12:31;;;;;;;34.60;24.00;;;333.40;1894.40;;;;;;5075227;28;20533;-62
2021/03/13 10:15:12;;;;;;;31.85;22.25;;;333.30;1894.40;;;;;;5073957;28;20037;-63
2021/03/13 10:17:48;;;;;;;32.25;22.42;;;333.00;1971.20;;;;;;5074853;28;20032;-60
2021/03/13 10:20:15;;;;;;;27.08;20.85;;;332.80;1996.80;;;;;;5054464;28;20036;-64
2021/03/13 10:22:40;;;;;;;29.88;21.10;;;333.10;1971.20;;;;;;5089773;28;20089;-62
2021/03/13 10:25:08;;;;;;;29.92;21.27;;;333.20;1920.00;;;;;;5093322;28;20016;-62
2021/03/13 10:27:35;;;;;;;29.27;22.17;;;333.30;1920.00;;;;;;5078419;28;20035;-63
2021/03/13 10:30:03;;;;;;;25.80;19.05;;;333.50;1920.00;;;;;;5073009;28;20020;-63
2021/03/13 10:32:31;;;;;;;27.40;19.92;;;333.30;1920.00;;;;;;5073243;28;20103;-60
2021/03/13 10:35:09;;;;;;;22.48;18.25;;;333.00;1945.60;;;;;;5072517;28;20087;-60
2021/03/13 10:37:43;;;;;;;24.17;17.27;;;333.30;1843.20;;;;;;5072747;28;20025;-63
2021/03/13 10:40:46;;;;;;;19.63;14.48;;;333.20;1817.60;;;;;;5072924;28;20103;-63
2021/03/13 10:43:21;;;;;;;19.95;15.38;;;333.30;1766.40;;;;;;5072783;28;20028;-63
2021/03/13 10:46:01;;;;;;;18.33;14.88;;;333.40;1792.00;;;;;;5072481;28;20364;-62
2021/03/13 10:48:38;;;;;;;19.30;15.60;;;;;;;;;;5072766;28;20103;-61
2021/03/13 10:51:04;;;;;;;23.95;17.98;;;;;;;;;;5072391;28;20102;-64
2021/03/13 10:53:37;;;;;;;22.63;17.48;;;;;;;;;;5072746;28;20021;-62
2021/03/13 10:56:04;;;;;;;21.20;17.55;;;;;;;;;;5083109;28;20446;-62
2021/03/13 10:58:31;;;;;;;20.58;16.33;;;;;;;;;;5090393;28;20024;-61
2021/03/13 11:00:58;;;;;;;21.80;16.30;;;;;;;;;;5072658;28;20029;-60
2021/03/13 11:03:24;;;;;;;21.00;15.73;;;;;;;;;;5072265;28;20063;-59
2021/03/13 11:05:52;;;;;;;16.88;14.23;;;;;;;;;;5072389;28;20017;-60
2021/03/13 11:08:19;;;;;;;15.80;13.20;;;;;;;;;;5072743;28;20371;-62
2021/03/13 11:10:45;;;;;;;14.68;12.82;;;;;;;;;;5072261;28;20256;-61
2021/03/13 11:13:11;;;;;;;17.70;15.20;;;;;;;;;;5072449;28;20082;-62
2021/03/13 11:15:37;;;;;;;16.00;14.10;;;;;;;;;;5071779;28;20095;-62
2021/03/13 11:18:04;;;;;;;19.90;14.25;;;;;;;;;;5072458;28;20062;-62
2021/03/13 11:20:30;;;;;;;16.58;14.13;;;;;;;;;;5071840;28;20112;-62
2021/03/13 11:22:57;;;;;;;18.42;15.93;;;;;;;;;;5072461;28;20497;-60
2021/03/13 11:25:23;;;;;;;16.95;14.98;;;;;;;;;;5053965;28;20101;-62
2021/03/13 11:27:49;;;;;;;18.98;15.73;;;;;;;;;;5072269;28;20024;-63
2021/03/13 11:30:16;;;;;;;16.50;14.35;;;;;;;;;;5072008;28;20020;-61
2021/03/13 11:32:42;;;;;;;15.35;13.60;;;;;;;;;;5068359;28;20478;-63
2021/03/13 11:35:08;;;;;;;17.50;13.80;;;;;;;;;;5071546;28;20378;-60
2021/03/13 11:37:35;;;;;;;15.52;12.75;;;;;;;;;;5072134;28;20024;-64
2021/03/13 11:40:02;;;;;;;14.38;12.65;;;;;;;;;;5072089;28;20434;-61
2021/03/13 11:42:28;;;;;;;14.93;12.25;;;;;;;;;;5071869;28;20474;-62
2021/03/13 11:45:00;;;;;;;13.65;11.85;;;;;;;;;;5071985;28;20021;-63
2021/03/13 11:47:26;;;;;;;13.98;11.90;;;;;;;;;;5072013;28;20028;-60
2021/03/13 11:49:53;;;;;;;14.40;12.35;;;;;;;;;;5071927;28;20111;-60
2021/03/13 11:52:20;;;;;;;12.23;10.98;;;;;;;;;;5072268;28;20518;-61
2021/03/13 11:54:47;;;;;;;11.32;10.13;;;;;;;;;;5072208;28;20112;-62
2021/03/13 11:57:14;;;;;;;12.40;11.20;;;;;;;;;;5072460;28;20103;-61
2021/03/13 11:59:40;;;;;;;11.48;9.10;;;;;;;;;;5072492;28;20024;-62
2021/03/13 12:02:06;;;;;;;11.07;9.10;;;;;;;;;;5072260;28;20029;-63
2021/03/13 12:04:32;;;;;;;13.25;9.45;;;;;;;;;;5072058;28;20028;-62
2021/03/13 12:06:58;;;;;;;10.40;8.60;;;;;;;;;;5072370;28;20517;-63
2021/03/13 12:09:24;;;;;;;11.73;10.35;;;;;;;;;;5071696;28;20052;-63
2021/03/13 12:11:50;;;;;;;11.93;10.50;;;;;;;;;;5072452;28;20021;-59
2021/03/13 12:14:16;;;;;;;11.10;9.75;;;;;;;;;;5071734;28;20497;-61
2021/03/13 12:16:42;;;;;;;10.77;9.73;;;;;;;;;;5072567;28;20108;-60
2021/03/13 12:19:08;;;;;;;9.60;8.60;;;;;;;;;;5069877;28;20025;-60
2021/03/13 12:21:35;;;;;;;8.60;7.72;;;;;;;;;;5075443;28;20119;-63
2021/03/13 12:24:01;;;;;;;7.28;6.57;;;;;;;;;;5082307;28;20036;-63
2021/03/13 12:26:27;;;;;;;9.00;8.10;;;;;;;;;;5082033;28;20021;-61
2021/03/13 12:28:53;;;;;;;8.63;7.82;;;;;;;;;;5087538;28;20024;-61